Time;durP1;ratioP1;P1;durP2;ratioP2;P2;SDS_P1;SDS_P2;PMS_P1;PMS_P2;Temp;Humidity;BMP_temperature;BMP_pressure;BME280_temperature;BME280_humidity;BME280_pressure;Samples;Min_cycle;Max_cycle;Signal;HPM_P1;HPM_P2
2022/06/28 00:01:19;;;;;;;4.22;2.92;;;;;;;24.12;49.42;101717.16;5049228;28;20404;-63
2022/06/28 00:03:44;;;;;;;5.27;3.10;;;;;;;24.12;50.05;101711.91;5033328;28;20397;-62
2022/06/28 00:06:10;;;;;;;6.43;3.10;;;;;;;24.12;49.92;101732.94;5019897;28;20453;-63
2022/06/28 00:08:35;;;;;;;4.70;3.00;;;;;;;24.11;49.94;101733.81;5042256;28;20417;-62
2022/06/28 00:11:00;;;;;;;3.90;2.90;;;;;;;24.14;49.60;101736.47;5059500;28;20394;-62
2022/06/28 00:13:26;;;;;;;4.38;2.90;;;;;;;24.09;49.38;101748.72;5060354;28;20400;-62
2022/06/28 00:16:06;;;;;;;5.43;2.90;;;;;;;24.09;49.73;101743.44;5061869;28;20411;-62
2022/06/28 00:18:34;;;;;;;3.90;3.13;;;;;;;24.11;50.48;101752.25;5035826;28;20396;-62
2022/06/28 00:20:59;;;;;;;5.57;3.30;;;;;;;24.11;49.92;101746.06;5036729;28;20414;-62
2022/06/28 00:23:24;;;;;;;3.93;3.00;;;;;;;24.10;49.40;101745.22;5081915;22;20463;-63
2022/06/28 00:25:50;;;;;;;3.70;3.10;;;;;;;24.09;50.19;101743.44;5015852;28;20440;-61
2022/06/28 00:28:18;;;;;;;4.88;3.50;;;;;;;24.11;49.46;101739.09;5022440;28;20405;-62
2022/06/28 00:30:43;;;;;;;6.55;3.55;;;;;;;24.09;49.33;101738.19;4995942;28;20422;-61
2022/06/28 00:33:09;;;;;;;5.87;4.00;;;;;;;24.10;50.34;101732.06;5044631;28;21267;-61
2022/06/28 00:35:34;;;;;;;5.53;3.40;;;;;;;24.08;49.81;101725.91;5028457;28;20425;-61
2022/06/28 00:38:00;;;;;;;5.93;3.70;;;;;;;24.07;49.53;101734.66;5040987;28;20410;-62
2022/06/28 00:40:25;;;;;;;6.10;3.63;;;;;;;24.09;49.63;101734.66;5042638;28;20407;-61
2022/06/28 00:42:51;;;;;;;6.85;3.95;;;;;;;24.08;49.61;101733.78;5048681;28;20404;-61
2022/06/28 00:45:16;;;;;;;4.70;3.53;;;;;;;24.06;49.77;101743.41;5031838;28;20870;-62
2022/06/28 00:47:42;;;;;;;7.03;4.07;;;;;;;24.05;49.70;101741.66;5008144;28;20463;-62
2022/06/28 00:50:08;;;;;;;4.65;3.75;;;;;;;24.05;49.88;101746.91;5009463;28;21289;-62
2022/06/28 00:52:33;;;;;;;6.82;4.57;;;;;;;24.03;49.98;101759.16;5049372;28;20425;-62
2022/06/28 00:54:58;;;;;;;5.37;4.17;;;;;;;24.04;49.79;101755.69;5036141;28;20396;-62
2022/06/28 00:57:24;;;;;;;6.57;4.10;;;;;;;24.02;49.50;101753.00;5024354;28;20447;-61
2022/06/28 00:59:49;;;;;;;5.38;4.15;;;;;;;24.02;49.76;101749.50;5041700;28;20397;-62
2022/06/28 01:02:15;;;;;;;6.17;4.27;;;;;;;24.03;49.75;101753.91;5050379;28;20919;-61
2022/06/28 01:04:40;;;;;;;6.80;4.30;;;;;;;24.01;49.70;101748.63;5031171;28;20414;-62
2022/06/28 01:07:06;;;;;;;6.35;4.40;;;;;;;24.02;49.84;101752.16;5014603;28;20393;-62
2022/06/28 01:09:31;;;;;;;5.55;4.20;;;;;;;24.00;49.56;101759.13;5025972;28;20424;-62
2022/06/28 01:11:57;;;;;;;5.28;4.05;;;;;;;24.00;50.00;101764.41;5029922;28;20769;-62
2022/06/28 01:14:23;;;;;;;6.27;4.47;;;;;;;23.95;49.82;101766.06;5027649;28;20489;-61
2022/06/28 01:16:49;;;;;;;6.82;4.78;;;;;;;23.93;49.13;101764.31;5004453;28;20404;-62
2022/06/28 01:19:16;;;;;;;6.33;4.80;;;;;;;23.96;49.69;101762.56;5028285;28;20399;-62
2022/06/28 01:21:41;;;;;;;6.43;4.57;;;;;;;23.93;50.14;101766.94;5006036;28;20397;-62
2022/06/28 01:24:07;;;;;;;5.15;4.22;;;;;;;23.92;49.10;101752.00;5020125;28;20814;-62
2022/06/28 01:26:33;;;;;;;6.68;4.75;;;;;;;23.92;50.17;101757.28;5024366;28;20432;-62
2022/06/28 01:28:59;;;;;;;6.18;4.50;;;;;;;23.93;49.50;101753.78;5019080;28;20775;-62
2022/06/28 01:31:24;;;;;;;7.00;5.07;;;;;;;23.93;49.77;101761.66;5016610;28;20393;-62
2022/06/28 01:33:51;;;;;;;7.25;5.20;;;;;;;23.91;49.47;101766.03;5032418;28;20399;-61
2022/06/28 01:36:16;;;;;;;5.97;4.80;;;;;;;23.92;49.52;101759.91;5025651;28;20435;-62
2022/06/28 01:38:42;;;;;;;6.83;4.97;;;;;;;23.93;49.79;101766.94;5018487;28;20823;-62
2022/06/28 01:41:08;;;;;;;8.32;5.32;;;;;;;23.92;49.50;101762.53;5013522;28;20401;-61
2022/06/28 01:43:35;;;;;;;7.33;5.33;;;;;;;23.92;48.79;101757.28;5004931;28;20735;-62
2022/06/28 01:46:03;;;;;;;5.47;4.88;;;;;;;23.95;49.80;101750.28;5007820;28;20483;-62
2022/06/28 01:48:28;;;;;;;5.78;4.90;;;;;;;23.95;49.59;101766.06;5007793;28;20912;-62
2022/06/28 01:50:54;;;;;;;5.43;4.63;;;;;;;23.92;49.38;101770.44;5014540;28;20395;-62
2022/06/28 01:53:20;;;;;;;7.67;4.73;;;;;;;23.92;49.06;101775.69;5011130;28;20395;-62
2022/06/28 01:55:46;;;;;;;6.88;4.47;;;;;;;23.90;49.12;101779.16;5021093;28;20401;-62
2022/06/28 01:58:11;;;;;;;7.80;4.35;;;;;;;23.93;48.86;101790.59;5009715;28;20392;-62
2022/06/28 02:00:37;;;;;;;6.23;3.97;;;;;;;23.91;49.07;101781.81;5017412;28;20403;-63
2022/06/28 02:03:03;;;;;;;5.57;4.00;;;;;;;23.93;49.58;101789.72;5049182;28;20483;-62
2022/06/28 02:05:30;;;;;;;5.32;3.83;;;;;;;23.93;49.23;101801.13;5032789;28;20803;-62
2022/06/28 02:07:55;;;;;;;5.22;3.95;;;;;;;23.93;49.41;101801.13;5011422;28;20853;-62
2022/06/28 02:10:21;;;;;;;5.47;4.05;;;;;;;23.92;48.62;101804.63;5050550;28;20406;-62
2022/06/28 02:12:47;;;;;;;5.88;3.95;;;;;;;23.90;49.72;101793.22;5015223;28;20903;-63
2022/06/28 02:15:13;;;;;;;6.63;4.10;;;;;;;23.87;49.40;101793.16;5027165;28;20397;-62
2022/06/28 02:17:40;;;;;;;6.60;4.00;;;;;;;23.87;49.12;101795.78;5017107;28;20391;-62
2022/06/28 02:20:05;;;;;;;5.32;3.90;;;;;;;23.82;49.23;101771.16;5016997;28;20380;-62
2022/06/28 02:22:33;;;;;;;6.45;4.20;;;;;;;23.92;48.99;101778.31;5023619;28;20809;-62
2022/06/28 02:24:59;;;;;;;7.00;4.13;;;;;;;23.87;48.53;101774.75;5050995;28;20426;-63
2022/06/28 02:27:24;;;;;;;6.75;4.53;;;;;;;23.88;49.39;101770.34;5016514;28;20872;-62
2022/06/28 02:29:52;;;;;;;6.50;4.50;;;;;;;23.84;49.06;101758.91;5032449;28;20396;-62
2022/06/28 02:32:17;;;;;;;6.25;4.30;;;;;;;23.85;49.09;101771.19;5008695;28;20761;-62
2022/06/28 02:40:21;;;;;;;7.60;5.15;;;;;;;23.77;49.46;101778.09;5032609;28;20486;-62
2022/06/28 02:42:57;;;;;;;15.15;5.97;;;;;;;23.87;49.17;101790.53;5016978;28;20402;-62
2022/06/28 02:45:24;;;;;;;8.00;5.15;;;;;;;23.85;49.36;101786.97;5007410;28;20402;-62
2022/06/28 02:47:50;;;;;;;9.20;5.67;;;;;;;23.79;49.58;101786.91;5010463;28;20435;-62
2022/06/28 02:50:18;;;;;;;6.68;5.25;;;;;;;23.80;49.12;101788.66;5027325;28;20401;-62
2022/06/28 02:52:44;;;;;;;6.90;5.53;;;;;;;23.73;49.33;101761.41;5006529;28;20735;-62
2022/06/28 02:55:09;;;;;;;7.97;5.50;;;;;;;23.81;49.16;101773.78;5029298;28;20468;-62
2022/06/28 02:57:38;;;;;;;5.95;5.28;;;;;;;23.81;48.82;101774.66;5030948;28;20862;-62
2022/06/28 03:00:15;;;;;;;6.88;4.88;;;;;;;23.80;49.38;101772.88;5039527;28;20951;-62
2022/06/28 03:02:42;;;;;;;7.45;5.15;;;;;;;23.81;49.59;101784.31;5029816;28;20387;-62
2022/06/28 03:05:10;;;;;;;7.10;5.03;;;;;;;23.77;48.96;101779.00;5023843;28;20399;-63
2022/06/28 03:07:36;;;;;;;6.65;5.40;;;;;;;23.79;48.78;101786.91;5015669;28;20416;-62
2022/06/28 03:10:02;;;;;;;7.35;5.22;;;;;;;23.79;49.44;101784.28;5026091;28;20404;-62
2022/06/28 03:12:27;;;;;;;6.78;5.05;;;;;;;23.79;49.05;101792.16;5025671;28;20441;-61
2022/06/28 03:20:42;;;;;;;6.78;5.00;;;;;;;23.74;48.98;101788.59;5028713;28;20642;-58
2022/06/28 03:23:07;;;;;;;7.13;5.20;;;;;;;23.59;49.31;101774.38;5011367;28;20777;-58
2022/06/28 03:25:33;;;;;;;7.00;4.80;;;;;;;23.73;49.40;101792.97;5035122;28;20419;-58
2022/06/28 03:28:03;;;;;;;5.40;4.73;;;;;;;23.71;49.34;101793.81;5009602;28;20475;-60
2022/06/28 03:30:29;;;;;;;7.30;5.07;;;;;;;23.72;49.23;101800.84;5009963;28;20400;-61
2022/06/28 03:32:54;;;;;;;9.47;5.23;;;;;;;23.73;48.74;101814.03;4994713;28;20399;-60
2022/06/28 03:35:19;;;;;;;6.40;4.60;;;;;;;23.74;48.77;101814.88;5011721;28;20866;-61
2022/06/28 03:37:46;;;;;;;8.40;5.67;;;;;;;23.73;49.08;101823.66;5007709;28;20453;-61
2022/06/28 03:40:13;;;;;;;7.85;5.90;;;;;;;23.75;49.58;101832.44;5027660;28;20925;-61
2022/06/28 03:42:42;;;;;;;6.75;5.20;;;;;;;23.74;49.23;101835.94;5011453;28;20931;-61
2022/06/28 03:45:10;;;;;;;7.10;5.33;;;;;;;23.72;48.99;101832.41;4994043;28;20466;-60
2022/06/28 03:47:36;;;;;;;7.43;5.05;;;;;;;23.73;48.96;101834.16;5010924;28;20859;-61
2022/06/28 03:50:01;;;;;;;6.03;4.77;;;;;;;23.70;49.78;101840.28;5004674;28;20392;-61
2022/06/28 03:52:29;;;;;;;5.65;4.32;;;;;;;23.70;49.03;101844.66;5011769;28;20472;-60
2022/06/28 03:54:56;;;;;;;6.28;4.90;;;;;;;23.73;49.02;101844.69;4992808;28;20409;-61
2022/06/28 03:57:23;;;;;;;7.73;4.67;;;;;;;23.69;49.16;101845.50;5004072;28;20401;-61
2022/06/28 03:59:48;;;;;;;6.68;4.53;;;;;;;23.64;49.43;101835.81;5010901;28;20447;-61
2022/06/28 04:02:14;;;;;;;5.93;4.77;;;;;;;23.72;49.06;101853.44;5009352;28;20817;-61
2022/06/28 04:04:39;;;;;;;6.00;4.60;;;;;;;23.64;49.33;101851.59;5027153;28;20782;-60
2022/06/28 04:07:05;;;;;;;5.47;4.60;;;;;;;23.70;49.56;101855.16;4998894;28;20491;-61
2022/06/28 04:09:30;;;;;;;7.03;4.70;;;;;;;23.72;49.71;101864.84;5020653;28;20479;-60
2022/06/28 04:11:55;;;;;;;5.88;4.30;;;;;;;23.73;49.44;101873.63;5029623;28;20412;-61
2022/06/28 04:14:21;;;;;;;7.13;4.33;;;;;;;23.72;49.66;101870.13;5027467;28;20404;-60
2022/06/28 04:16:46;;;;;;;6.30;4.10;;;;;;;23.68;49.48;101875.28;5013509;28;20492;-60
2022/06/28 04:19:11;;;;;;;6.22;3.88;;;;;;;23.70;49.68;101881.47;5015935;28;20407;-60
2022/06/28 04:21:37;;;;;;;5.73;4.10;;;;;;;23.70;49.40;101886.72;5013138;28;20405;-60
2022/06/28 04:24:03;;;;;;;5.47;4.00;;;;;;;23.72;49.95;101890.25;4999218;28;20397;-60
2022/06/28 04:26:28;;;;;;;5.13;3.70;;;;;;;23.71;49.64;101888.50;5014095;28;20489;-61
2022/06/28 04:28:54;;;;;;;6.27;3.90;;;;;;;23.59;49.22;101869.03;5014854;28;20822;-61
2022/06/28 04:31:19;;;;;;;5.80;3.80;;;;;;;23.67;49.40;101891.94;5030081;28;20401;-60
2022/06/28 04:33:45;;;;;;;5.15;3.70;;;;;;;23.61;49.35;101875.22;5014892;28;20408;-60
2022/06/28 04:36:10;;;;;;;5.60;3.70;;;;;;;23.59;49.17;101884.81;5014854;28;20397;-60
2022/06/28 04:38:36;;;;;;;5.10;3.80;;;;;;;23.72;50.34;101906.03;5032675;28;20428;-62
2022/06/28 04:41:01;;;;;;;4.90;3.70;;;;;;;23.69;49.31;101911.25;5015459;28;20412;-60
2022/06/28 04:43:26;;;;;;;5.73;4.23;;;;;;;23.71;49.86;101905.16;5026316;28;20450;-61
2022/06/28 04:45:52;;;;;;;5.23;3.70;;;;;;;23.75;49.93;101911.34;5014710;28;20486;-62
2022/06/28 04:48:22;;;;;;;6.53;3.83;;;;;;;23.73;49.88;101918.31;5014989;28;20535;-61
2022/06/28 04:50:47;;;;;;;7.22;4.20;;;;;;;23.75;49.26;101916.59;5013728;28;20747;-60
2022/06/28 04:53:12;;;;;;;6.80;4.33;;;;;;;23.65;49.32;101894.56;5015494;28;20450;-60
2022/06/28 04:55:38;;;;;;;6.33;4.37;;;;;;;23.78;49.80;101911.38;4990589;28;20428;-60
2022/06/28 04:58:03;;;;;;;5.60;4.07;;;;;;;23.77;49.62;101904.34;5016447;28;20676;-60
2022/06/28 05:00:29;;;;;;;4.57;3.90;;;;;;;23.77;49.82;101904.34;4999141;28;20783;-60
2022/06/28 05:02:55;;;;;;;6.37;4.10;;;;;;;23.74;50.02;101901.69;4996768;28;20383;-61
2022/06/28 05:05:24;;;;;;;6.25;4.15;;;;;;;23.75;49.46;101906.97;4997212;28;20408;-61
2022/06/28 05:07:49;;;;;;;6.05;4.07;;;;;;;23.78;49.06;101916.66;5014131;28;20754;-60
2022/06/28 05:10:17;;;;;;;6.40;4.00;;;;;;;23.74;50.14;101901.69;5015116;28;20435;-62
2022/06/28 05:12:43;;;;;;;7.65;4.68;;;;;;;23.62;49.98;101899.78;4997232;28;20401;-60
2022/06/28 05:15:09;;;;;;;6.47;4.55;;;;;;;23.77;49.52;101915.78;5012250;28;20428;-62
2022/06/28 05:17:34;;;;;;;5.53;4.50;;;;;;;23.80;49.81;101911.44;5013639;28;20409;-60
2022/06/28 05:19:59;;;;;;;6.60;4.43;;;;;;;23.81;49.91;101916.69;5013030;28;20488;-61
2022/06/28 05:22:25;;;;;;;7.80;5.07;;;;;;;23.80;49.57;101917.56;4996163;28;20402;-60
2022/06/28 05:24:53;;;;;;;6.78;4.88;;;;;;;23.78;50.04;101916.66;5017956;28;20405;-60
2022/06/28 05:27:18;;;;;;;6.28;4.40;;;;;;;23.76;49.40;101911.38;5017800;28;20736;-61
2022/06/28 05:29:44;;;;;;;6.45;4.50;;;;;;;23.81;49.68;101916.69;4992477;28;20413;-60
2022/06/28 05:32:09;;;;;;;8.53;5.03;;;;;;;23.84;49.91;101919.38;5010187;28;20401;-61
2022/06/28 05:34:35;;;;;;;7.90;5.40;;;;;;;23.86;50.21;101920.31;5007418;28;20431;-60
2022/06/28 05:37:00;;;;;;;6.10;4.53;;;;;;;23.85;49.41;101917.63;5007704;28;20552;-60
2022/06/28 05:39:25;;;;;;;9.00;4.80;;;;;;;23.81;50.35;101900.91;4999783;28;20470;-68
2022/06/28 05:41:51;;;;;;;6.90;4.60;;;;;;;23.88;50.23;101908.06;5013255;28;20765;-70
2022/06/28 05:44:16;;;;;;;7.78;4.32;;;;;;;23.84;49.76;101900.94;5001595;28;20770;-62
2022/06/28 05:46:42;;;;;;;7.03;4.10;;;;;;;23.92;50.02;101904.59;5013766;28;20399;-65
2022/06/28 05:49:11;;;;;;;7.30;4.47;;;;;;;23.93;50.09;101903.75;5013503;28;20886;-65
2022/06/28 05:51:36;;;;;;;6.83;4.40;;;;;;;23.98;49.57;101897.66;5004644;28;20411;-67
2022/06/28 05:54:02;;;;;;;7.40;4.70;;;;;;;23.97;49.53;101891.50;5027593;28;20725;-69
2022/06/28 05:56:27;;;;;;;6.70;4.70;;;;;;;23.99;49.46;101894.16;5018370;28;21176;-68
2022/06/28 05:58:53;;;;;;;7.35;4.97;;;;;;;24.02;50.20;101895.09;4995758;28;20401;-67
2022/06/28 06:01:20;;;;;;;7.38;5.25;;;;;;;24.07;50.57;101903.06;5013769;28;20401;-67
2022/06/28 06:03:46;;;;;;;6.00;5.07;;;;;;;24.07;49.51;101887.28;5014086;28;20405;-64
2022/06/28 06:06:14;;;;;;;6.17;4.67;;;;;;;24.10;49.98;101897.84;4990831;28;20381;-65
2022/06/28 06:08:43;;;;;;;7.60;4.55;;;;;;;24.15;50.19;101905.78;5017399;28;20397;-66
2022/06/28 06:11:08;;;;;;;5.60;4.95;;;;;;;24.13;49.47;101895.25;5014862;28;20401;-73
2022/06/28 06:13:34;;;;;;;8.33;4.70;;;;;;;24.14;50.19;101894.38;5019358;28;20433;-76
2022/06/28 06:16:05;;;;;;;5.67;4.37;;;;;;;24.16;50.01;101897.91;5035437;28;20398;-66
2022/06/28 06:18:30;;;;;;;6.82;4.38;;;;;;;24.16;49.66;101903.19;4998141;28;20935;-69
2022/06/28 06:20:58;;;;;;;6.20;3.90;;;;;;;24.07;50.22;101882.03;5015376;28;20385;-68
2022/06/28 06:23:24;;;;;;;6.43;4.35;;;;;;;24.09;49.88;101890.81;5011784;28;20489;-74
2022/06/28 06:25:49;;;;;;;8.37;4.60;;;;;;;24.07;50.32;101887.28;5015288;28;20431;-68
2022/06/28 06:28:15;;;;;;;7.60;4.32;;;;;;;24.23;50.62;101908.53;5022689;28;20475;-71
2022/06/28 06:30:41;;;;;;;6.35;4.30;;;;;;;23.87;49.92;101848.41;5001867;28;20876;-70
2022/06/28 06:33:06;;;;;;;9.07;4.60;;;;;;;24.14;49.41;101910.19;5014144;28;20386;-75
2022/06/28 06:35:32;;;;;;;5.97;4.00;;;;;;;23.96;49.65;101880.97;5041510;28;20376;-73
2022/06/28 06:38:00;;;;;;;10.33;4.20;;;;;;;24.06;50.19;101907.44;5019505;28;20396;-70
2022/06/28 06:40:30;;;;;;;6.13;4.30;;;;;;;24.03;50.05;101906.53;5010354;28;20401;-68
2022/06/28 06:42:55;;;;;;;5.75;3.90;;;;;;;24.00;49.87;101907.34;5016795;28;20406;-71
2022/06/28 06:45:21;;;;;;;5.47;3.80;;;;;;;24.06;49.83;101922.34;5024350;28;21257;-70
2022/06/28 06:47:47;;;;;;;7.30;3.72;;;;;;;23.92;49.55;101909.88;5009908;28;20417;-69
2022/06/28 06:50:12;;;;;;;8.80;3.90;;;;;;;23.82;49.66;101896.53;5017643;28;21144;-69
2022/06/28 06:52:40;;;;;;;6.53;3.90;;;;;;;23.92;49.65;101906.34;4996827;28;20393;-69
2022/06/28 06:55:07;;;;;;;6.43;3.97;;;;;;;23.92;48.70;101917.75;4996065;28;20404;-69
2022/06/28 06:57:32;;;;;;;6.45;3.95;;;;;;;23.89;48.98;101920.34;5013691;28;20381;-69
2022/06/28 06:59:57;;;;;;;5.60;3.50;;;;;;;23.88;49.07;101922.94;4995622;28;20909;-72
2022/06/28 07:02:23;;;;;;;6.78;4.03;;;;;;;23.95;48.83;101944.97;5013108;28;20389;-69
2022/06/28 07:04:48;;;;;;;4.70;3.80;;;;;;;23.93;49.34;101932.69;5013159;28;20390;-68
2022/06/28 07:07:16;;;;;;;7.13;3.80;;;;;;;23.98;49.04;101940.63;5009808;28;20436;-67
2022/06/28 07:09:41;;;;;;;6.45;3.70;;;;;;;23.86;48.66;101930.81;5011059;28;20408;-71
2022/06/28 07:12:07;;;;;;;10.17;4.37;;;;;;;23.93;49.23;101937.94;5012338;28;20397;-69
2022/06/28 07:14:32;;;;;;;4.90;3.70;;;;;;;23.98;48.90;101940.63;4992320;28;20472;-71
2022/06/28 07:16:57;;;;;;;5.27;4.03;;;;;;;23.96;49.14;101944.97;5012292;28;20886;-73
2022/06/28 07:19:23;;;;;;;5.60;3.67;;;;;;;23.83;48.34;101925.50;5029556;28;20409;-69
2022/06/28 07:21:48;;;;;;;4.07;3.20;;;;;;;24.01;49.04;101966.16;5012781;28;20389;-70
2022/06/28 07:24:16;;;;;;;5.73;3.60;;;;;;;23.90;48.16;101932.63;5014818;28;20697;-72
2022/06/28 07:26:49;;;;;;;4.60;3.28;;;;;;;23.98;48.30;101960.81;5013777;28;20381;-69
2022/06/28 07:29:17;;;;;;;4.80;3.33;;;;;;;23.93;48.72;101953.72;5013117;28;20455;-69
2022/06/28 07:31:44;;;;;;;5.50;3.60;;;;;;;24.01;48.51;101960.88;5030688;28;20488;-72
2022/06/28 07:34:12;;;;;;;5.10;3.60;;;;;;;24.03;48.09;101956.53;5013254;28;20768;-68
2022/06/28 07:36:38;;;;;;;5.40;3.55;;;;;;;24.09;47.90;101969.78;4999846;28;20392;-72
2022/06/28 07:39:03;;;;;;;6.28;3.90;;;;;;;24.09;48.03;101964.50;5009830;28;20784;-69
2022/06/28 07:41:28;;;;;;;5.27;3.20;;;;;;;24.07;47.63;101958.34;4995810;28;20389;-70
2022/06/28 07:43:54;;;;;;;5.23;3.10;;;;;;;23.99;47.53;101952.06;5013270;28;20905;-72
2022/06/28 07:46:20;;;;;;;4.90;3.13;;;;;;;24.10;47.24;101982.06;5012395;28;20470;-69
2022/06/28 07:48:50;;;;;;;6.45;3.40;;;;;;;24.08;47.24;101975.88;5012490;28;20565;-69
2022/06/28 07:54:00;;;;;;;5.50;2.88;;;;;;;23.95;46.85;101955.50;5011058;28;20888;-69
2022/06/28 07:56:25;;;;;;;4.87;2.90;;;;;;;23.98;47.10;101960.81;5002815;28;20365;-69
2022/06/28 07:58:53;;;;;;;4.20;2.83;;;;;;;24.03;47.04;101969.69;5013056;28;20451;-69
2022/06/28 08:01:19;;;;;;;6.22;3.03;;;;;;;24.10;47.31;101982.06;5012986;28;20753;-71
2022/06/28 08:03:44;;;;;;;4.23;2.70;;;;;;;24.10;47.12;101971.53;5012381;28;20481;-69
2022/06/28 08:06:10;;;;;;;5.07;2.77;;;;;;;24.15;46.77;101980.38;5012664;28;20392;-70
2022/06/28 08:08:35;;;;;;;4.43;2.60;;;;;;;24.09;46.71;101977.66;4996431;28;20408;-70
2022/06/28 08:11:00;;;;;;;3.90;2.50;;;;;;;24.00;46.49;101948.59;5012436;28;20417;-69
2022/06/28 08:13:26;;;;;;;4.80;2.78;;;;;;;24.06;45.61;101954.81;5013026;28;20406;-74
2022/06/28 08:15:51;;;;;;;5.27;2.83;;;;;;;24.10;45.44;101971.53;5010757;28;20393;-71
2022/06/28 08:18:16;;;;;;;5.57;2.50;;;;;;;24.10;45.72;101976.81;5003240;28;20453;-70
2022/06/28 08:20:42;;;;;;;4.03;2.28;;;;;;;24.09;45.79;101969.78;5016614;28;20869;-70
2022/06/28 08:23:07;;;;;;;3.10;2.10;;;;;;;23.85;45.66;101939.53;5032023;28;20428;-77
2022/06/28 08:25:33;;;;;;;6.17;2.70;;;;;;;24.01;45.98;101960.88;5016546;28;20854;-69
2022/06/28 08:27:58;;;;;;;4.63;2.60;;;;;;;24.13;45.24;101982.09;4992248;28;20399;-70
2022/06/28 08:30:25;;;;;;;3.13;2.07;;;;;;;24.11;44.99;101989.09;5016094;28;20425;-73
2022/06/28 08:32:51;;;;;;;5.10;2.05;;;;;;;23.89;45.30;101951.91;4998899;28;20402;-70
2022/06/28 08:35:19;;;;;;;4.17;2.00;;;;;;;24.10;44.69;101989.97;5027135;28;20782;-70
2022/06/28 08:37:45;;;;;;;4.10;2.38;;;;;;;24.13;44.60;101987.38;4993747;28;20403;-70
2022/06/28 08:40:10;;;;;;;5.13;2.30;;;;;;;24.07;44.56;101982.03;5026775;28;20396;-70
2022/06/28 08:42:45;;;;;;;3.97;1.95;;;;;;;24.08;44.80;101991.69;4989804;28;20413;-71
2022/06/28 08:45:13;;;;;;;4.25;2.00;;;;;;;24.08;44.68;101989.06;5003063;28;20456;-70
2022/06/28 08:47:41;;;;;;;4.07;1.90;;;;;;;24.10;44.06;101992.59;5016891;28;20497;-70
2022/06/28 08:50:13;;;;;;;4.88;2.20;;;;;;;23.95;44.38;101982.69;5013790;28;20403;-72
2022/06/28 08:52:41;;;;;;;3.17;1.95;;;;;;;24.11;43.57;102004.88;5021327;28;20488;-70
2022/06/28 08:55:08;;;;;;;5.75;2.40;;;;;;;23.85;43.60;101949.19;5023592;28;20421;-70
2022/06/28 08:57:35;;;;;;;3.88;2.00;;;;;;;23.97;44.06;101969.56;5001175;28;20443;-70
2022/06/28 09:00:05;;;;;;;3.35;1.90;;;;;;;24.15;42.93;102000.53;5010105;28;20456;-70
2022/06/28 09:02:31;;;;;;;5.03;2.10;;;;;;;24.14;43.36;101986.50;5009246;28;20439;-70
2022/06/28 09:04:59;;;;;;;4.20;1.97;;;;;;;24.07;42.93;101979.38;5015982;28;20398;-74
2022/06/28 09:07:24;;;;;;;3.80;1.90;;;;;;;24.05;43.04;101975.84;5012578;28;20934;-73
2022/06/28 09:09:50;;;;;;;3.70;2.00;;;;;;;23.87;43.07;101953.66;5032286;28;20489;-69
2022/06/28 09:12:16;;;;;;;4.20;2.00;;;;;;;24.07;43.04;101987.28;5015488;28;20393;-69
2022/06/28 09:14:42;;;;;;;4.38;1.88;;;;;;;23.85;41.91;101936.91;4999348;28;20924;-71
2022/06/28 09:17:21;;;;;;;3.03;1.70;;;;;;;24.14;42.99;101989.13;5015801;28;20397;-65
2022/06/28 09:20:08;;;;;;;5.88;2.13;;;;;;;23.94;40.39;101991.44;4993877;28;20452;-69
2022/06/28 09:22:33;;;;;;;4.90;2.10;;;;;;;23.78;40.22;101991.19;5010655;28;20520;-70
2022/06/28 09:24:59;;;;;;;5.80;1.90;;;;;;;23.40;40.31;101932.72;5015061;28;20393;-68
2022/06/28 09:27:31;;;;;;;4.15;1.67;;;;;;;23.61;40.74;101966.38;4997691;28;20854;-68
2022/06/28 09:29:58;;;;;;;6.00;2.10;;;;;;;23.65;41.07;101976.09;4995572;28;20390;-68
2022/06/28 09:32:28;;;;;;;4.18;1.75;;;;;;;23.77;40.18;101988.53;5014866;28;20397;-67
2022/06/28 09:34:56;;;;;;;3.22;1.60;;;;;;;23.76;39.29;101981.50;4999124;28;20381;-66
2022/06/28 09:37:56;;;;;;;4.90;1.60;;;;;;;23.43;39.86;101935.41;4997707;28;20409;-67
2022/06/28 09:40:29;;;;;;;3.08;1.95;;;;;;;23.80;39.28;101992.97;5013146;28;20836;-67
2022/06/28 09:43:16;;;;;;;3.83;1.73;;;;;;;23.73;38.41;101991.97;4997397;28;20402;-66
2022/06/28 09:45:46;;;;;;;7.95;2.20;;;;;;;23.69;38.56;101979.63;5014442;28;20385;-68
2022/06/28 09:48:20;;;;;;;3.50;1.60;;;;;;;23.68;37.93;101975.22;4998343;28;20488;-66
2022/06/28 09:50:49;;;;;;;4.97;1.73;;;;;;;23.73;37.87;101981.44;4997881;28;20433;-63
2022/06/28 09:53:20;;;;;;;3.25;1.50;;;;;;;23.74;38.86;101972.69;5011514;28;20893;-69
2022/06/28 09:55:46;;;;;;;3.42;1.60;;;;;;;23.81;38.95;101982.47;4994434;28;21426;-71
2022/06/28 09:58:11;;;;;;;3.70;1.70;;;;;;;23.90;39.62;101985.25;4990669;28;20402;-69
2022/06/28 10:00:39;;;;;;;3.90;1.50;;;;;;;23.91;38.01;101987.03;5084101;22;20436;-69
2022/06/28 10:03:11;;;;;;;3.55;1.60;;;;;;;23.81;38.42;101985.09;5069580;28;20394;-64
2022/06/28 10:05:36;;;;;;;4.00;1.50;;;;;;;23.74;37.92;101968.34;5072047;28;20384;-62
2022/06/28 10:08:02;;;;;;;4.27;1.67;;;;;;;23.78;38.18;101974.53;5081550;28;20410;-64
2022/06/28 10:10:28;;;;;;;5.97;2.23;;;;;;;23.75;38.25;101978.00;5071683;28;20427;-55
2022/06/28 10:15:48;;;;;;;4.40;1.65;;;;;;;23.71;36.75;101988.44;5060444;28;20449;-58
2022/06/28 10:18:18;;;;;;;3.38;1.33;;;;;;;23.55;37.09;101956.63;5057571;28;20364;-59
2022/06/28 10:20:47;;;;;;;2.73;1.37;;;;;;;23.76;36.65;101981.50;5062300;28;20408;-58
2022/06/28 10:23:33;;;;;;;3.00;1.30;;;;;;;23.78;36.45;101979.78;5048062;28;20453;-62
2022/06/28 10:26:02;;;;;;;3.50;1.60;;;;;;;23.76;36.93;101976.25;5066270;28;20424;-59
2022/06/28 10:28:33;;;;;;;4.38;1.70;;;;;;;23.72;37.58;101971.78;5087969;28;20411;-61
2022/06/28 10:31:33;;;;;;;5.45;1.60;;;;;;;23.74;38.25;101977.97;5050980;28;20388;-60
2022/06/28 10:34:03;;;;;;;3.77;1.70;;;;;;;23.69;38.42;101984.91;5106750;28;20367;-61
2022/06/28 10:36:39;;;;;;;3.67;1.52;;;;;;;23.80;38.02;101978.06;5088040;28;20376;-63
2022/06/28 10:39:08;;;;;;;2.50;1.10;;;;;;;23.86;38.05;101975.56;5052236;28;20389;-66
2022/06/28 10:41:41;;;;;;;3.97;1.50;;;;;;;23.83;37.57;101982.50;5064048;28;20388;-59
2022/06/28 10:44:09;;;;;;;2.65;1.40;;;;;;;23.71;37.02;101967.41;5053220;28;20398;-58
2022/06/28 10:46:35;;;;;;;3.60;1.42;;;;;;;23.79;38.05;101976.28;5070344;28;20390;-63
2022/06/28 10:49:09;;;;;;;2.17;1.40;;;;;;;23.77;37.73;101956.97;5041324;28;20404;-62
2022/06/28 10:51:36;;;;;;;2.50;1.20;;;;;;;23.90;37.11;101969.47;5065665;28;20395;-62
2022/06/28 10:54:04;;;;;;;2.55;1.20;;;;;;;23.85;38.25;101971.13;5057125;28;20880;-61
2022/06/28 10:56:43;;;;;;;2.78;1.30;;;;;;;23.70;37.33;101966.53;5049173;28;20428;-59
2022/06/28 10:59:16;;;;;;;3.10;1.40;;;;;;;23.70;38.24;101963.00;5054126;28;20398;-57
2022/06/28 11:01:51;;;;;;;2.67;1.38;;;;;;;23.83;36.89;101962.31;5066646;28;20392;-57
2022/06/28 11:04:19;;;;;;;3.05;1.40;;;;;;;23.84;37.24;101964.09;5091561;28;20702;-63
2022/06/28 11:06:53;;;;;;;1.98;1.20;;;;;;;23.83;36.86;101962.31;5097841;28;20369;-63
2022/06/28 11:09:37;;;;;;;2.15;1.38;;;;;;;23.76;36.01;101958.72;5055770;28;20472;-61
2022/06/28 11:12:06;;;;;;;4.03;1.20;;;;;;;23.85;37.32;101971.13;5058059;28;20392;-58
2022/06/28 11:14:36;;;;;;;4.32;1.17;;;;;;;23.89;35.77;101962.44;5073479;28;20879;-57
2022/06/28 11:17:16;;;;;;;3.10;1.30;;;;;;;23.88;36.47;101960.66;5056653;28;20393;-60
2022/06/28 11:19:50;;;;;;;3.67;1.30;;;;;;;23.89;36.83;101962.44;5078106;28;20421;-57
2022/06/28 11:22:18;;;;;;;1.70;1.25;;;;;;;23.92;36.13;101954.59;5062831;28;20470;-59
2022/06/28 11:24:46;;;;;;;3.40;1.40;;;;;;;23.88;36.59;101944.00;5077610;28;20436;-60
2022/06/28 11:27:21;;;;;;;3.08;1.30;;;;;;;23.94;36.09;101970.38;5049291;28;20937;-54
2022/06/28 11:30:02;;;;;;;3.70;1.20;;;;;;;23.92;35.91;101957.22;5074428;28;20391;-57
2022/06/28 11:32:30;;;;;;;2.20;1.40;;;;;;;23.92;36.09;101957.22;5079668;28;20390;-61
2022/06/28 11:35:02;;;;;;;4.07;1.40;;;;;;;23.89;36.57;101941.41;5051929;28;20886;-61
2022/06/28 11:37:29;;;;;;;3.00;1.52;;;;;;;24.00;36.43;101959.13;5065324;28;20396;-61
2022/06/28 11:40:00;;;;;;;3.38;1.70;;;;;;;24.02;37.24;101963.53;5065922;28;20368;-60
2022/06/28 11:42:25;;;;;;;2.80;1.20;;;;;;;24.00;37.58;101948.59;5064391;28;20765;-60